Delta Virtual Airport Information Service

Unalaska Airport

ICAO: PADU Country: United States
Latitude: 53.9001 Longitude: -166.544
Latest Arrival : DAX1948 (PADK-PADU) Latest Departure : DAX1949 (PADU-PAPH)


WX CaptureLIVE
Data provided by noaa.gov | Fetched at 06:57:44

METAR : PADU 271056Z AUTO 14016KT 10SM -RA OVC025 06/02 A3008 RMK AO2 SLP192 P0000 T00560017

TAF : PADU 271056Z AUTO 14016KT 10SM -RA OVC025 06/02 A3008 RMK AO2 SLP192 P0000 T00560017


Runway Data for PADU
Data provided by openaviationdata.com

Runway ID Mag Var Hdg Length Elevation Surface ILS Freq ILS Id ILS Slope
12 14 121° 3895 ft 22 ft Asphalt -- -- --
30 14 301° 3895 ft 22 ft Asphalt -- -- --

Unalaska Airport, United States
Use only for reference purposes



Not for navigational purposes.